sensor_id;sensor_type;location;lat;lon;timestamp;pressure;altitude;pressure_sealevel;temperature;humidity
49072;BME280;74284;52.610;10.236;2024-02-26T00:01:41;99891.75;;;2.67;62.43
49072;BME280;74284;52.610;10.236;2024-02-26T00:04:09;99889.19;;;2.65;62.67
49072;BME280;74284;52.610;10.236;2024-02-26T00:06:34;99896.19;;;2.65;62.80
49072;BME280;74284;52.610;10.236;2024-02-26T00:08:59;99891.84;;;2.64;62.24
49072;BME280;74284;52.610;10.236;2024-02-26T00:11:25;99889.34;;;2.59;63.47
49072;BME280;74284;52.610;10.236;2024-02-26T00:13:51;99885.09;;;2.53;63.17
49072;BME280;74284;52.610;10.236;2024-02-26T00:16:16;99887.66;;;2.56;62.70
49072;BME280;74284;52.610;10.236;2024-02-26T00:18:41;99891.19;;;2.55;62.46
49072;BME280;74284;52.610;10.236;2024-02-26T00:21:07;99888.69;;;2.51;62.73
49072;BME280;74284;52.610;10.236;2024-02-26T00:23:32;99885.16;;;2.52;62.83
49072;BME280;74284;52.610;10.236;2024-02-26T00:25:57;99886.88;;;2.53;62.80
49072;BME280;74284;52.610;10.236;2024-02-26T00:28:23;99885.31;;;2.44;63.23
49072;BME280;74284;52.610;10.236;2024-02-26T00:30:50;99886.16;;;2.46;62.92
49072;BME280;74284;52.610;10.236;2024-02-26T00:33:16;99886.13;;;2.48;62.56
49072;BME280;74284;52.610;10.236;2024-02-26T00:35:42;99880.25;;;2.38;62.92
49072;BME280;74284;52.610;10.236;2024-02-26T00:38:07;99882.88;;;2.38;63.06
49072;BME280;74284;52.610;10.236;2024-02-26T00:40:32;99875.00;;;2.38;63.13
49072;BME280;74284;52.610;10.236;2024-02-26T00:42:58;99878.44;;;2.40;63.16
49072;BME280;74284;52.610;10.236;2024-02-26T00:45:23;99883.63;;;2.43;63.18
49072;BME280;74284;52.610;10.236;2024-02-26T00:47:48;99876.63;;;2.44;63.11
49072;BME280;74284;52.610;10.236;2024-02-26T00:50:15;99883.56;;;2.46;62.67
49072;BME280;74284;52.610;10.236;2024-02-26T00:52:40;99872.34;;;2.41;63.01
49072;BME280;74284;52.610;10.236;2024-02-26T00:55:06;99871.50;;;2.39;63.43
49072;BME280;74284;52.610;10.236;2024-02-26T00:57:31;99865.69;;;2.62;64.70
49072;BME280;74284;52.610;10.236;2024-02-26T00:59:57;99877.34;;;2.50;62.83
49072;BME280;74284;52.610;10.236;2024-02-26T01:02:22;99879.44;;;2.36;63.25
49072;BME280;74284;52.610;10.236;2024-02-26T01:04:48;99885.50;;;2.38;63.47
49072;BME280;74284;52.610;10.236;2024-02-26T01:07:13;99875.00;;;2.38;63.97
49072;BME280;74284;52.610;10.236;2024-02-26T01:09:39;99870.53;;;2.43;64.05
49072;BME280;74284;52.610;10.236;2024-02-26T01:12:04;99873.16;;;2.43;64.01
49072;BME280;74284;52.610;10.236;2024-02-26T01:14:29;99873.97;;;2.45;63.40
49072;BME280;74284;52.610;10.236;2024-02-26T01:16:55;99878.31;;;2.46;63.40
49072;BME280;74284;52.610;10.236;2024-02-26T01:19:21;99881.03;;;2.42;63.72
49072;BME280;74284;52.610;10.236;2024-02-26T01:21:46;99873.31;;;2.35;63.31
49072;BME280;74284;52.610;10.236;2024-02-26T01:24:11;99870.84;;;2.29;63.95
49072;BME280;74284;52.610;10.236;2024-02-26T01:26:37;99872.56;;;2.32;64.09
49072;BME280;74284;52.610;10.236;2024-02-26T01:29:02;99864.78;;;2.29;63.75
49072;BME280;74284;52.610;10.236;2024-02-26T01:31:27;99872.69;;;2.26;63.74
49072;BME280;74284;52.610;10.236;2024-02-26T01:33:53;99875.31;;;2.26;63.86
49072;BME280;74284;52.610;10.236;2024-02-26T01:36:18;99868.25;;;2.29;63.59
49072;BME280;74284;52.610;10.236;2024-02-26T01:38:43;99873.63;;;2.23;63.75
49072;BME280;74284;52.610;10.236;2024-02-26T01:41:09;99872.78;;;2.23;63.70
49072;BME280;74284;52.610;10.236;2024-02-26T01:43:34;99873.75;;;2.17;63.75
49072;BME280;74284;52.610;10.236;2024-02-26T01:45:59;99876.38;;;2.17;63.72
49072;BME280;74284;52.610;10.236;2024-02-26T01:48:25;99880.91;;;2.11;64.00
49072;BME280;74284;52.610;10.236;2024-02-26T01:50:51;99875.63;;;2.14;64.18
49072;BME280;74284;52.610;10.236;2024-02-26T01:53:16;99880.00;;;2.12;63.90
49072;BME280;74284;52.610;10.236;2024-02-26T01:55:42;99894.91;;;2.09;64.06
49072;BME280;74284;52.610;10.236;2024-02-26T01:58:08;99887.00;;;2.11;63.76
49072;BME280;74284;52.610;10.236;2024-02-26T02:00:34;99877.84;;;2.65;64.30
49072;BME280;74284;52.610;10.236;2024-02-26T02:03:00;99875.25;;;2.65;61.64
49072;BME280;74284;52.610;10.236;2024-02-26T02:05:26;99883.84;;;2.70;61.24
49072;BME280;74284;52.610;10.236;2024-02-26T02:07:52;99877.81;;;2.66;62.03
49072;BME280;74284;52.610;10.236;2024-02-26T02:10:18;99877.56;;;2.75;61.51
49072;BME280;74284;52.610;10.236;2024-02-26T02:12:48;99873.25;;;2.74;61.27
49072;BME280;74284;52.610;10.236;2024-02-26T02:15:13;99875.94;;;2.71;60.99
49072;BME280;74284;52.610;10.236;2024-02-26T02:17:39;99887.25;;;2.72;61.16
49072;BME280;74284;52.610;10.236;2024-02-26T02:20:16;99890.78;;;2.72;61.59
49072;BME280;74284;52.610;10.236;2024-02-26T02:22:46;99891.56;;;2.74;60.99
49072;BME280;74284;52.610;10.236;2024-02-26T02:25:12;99889.19;;;2.65;61.06
49072;BME280;74284;52.610;10.236;2024-02-26T02:27:37;99888.16;;;2.71;61.02
49072;BME280;74284;52.610;10.236;2024-02-26T02:30:04;99897.66;;;2.75;61.56
49072;BME280;74284;52.610;10.236;2024-02-26T02:32:30;99899.56;;;2.70;61.93
49072;BME280;74284;52.610;10.236;2024-02-26T02:34:56;99897.78;;;2.70;61.83
49072;BME280;74284;52.610;10.236;2024-02-26T02:37:21;99895.84;;;2.78;61.60
49072;BME280;74284;52.610;10.236;2024-02-26T02:39:47;99888.84;;;2.79;61.81
49072;BME280;74284;52.610;10.236;2024-02-26T02:42:12;99884.75;;;2.67;62.90
49072;BME280;74284;52.610;10.236;2024-02-26T02:44:37;99898.47;;;2.78;62.29
49072;BME280;74284;52.610;10.236;2024-02-26T02:47:03;99901.16;;;2.75;62.46
49072;BME280;74284;52.610;10.236;2024-02-26T02:49:28;99903.25;;;2.61;63.69
49072;BME280;74284;52.610;10.236;2024-02-26T02:51:53;99902.44;;;2.59;64.67
49072;BME280;74284;52.610;10.236;2024-02-26T02:54:19;99893.53;;;2.66;63.77
49072;BME280;74284;52.610;10.236;2024-02-26T02:56:45;99894.97;;;2.78;62.91
49072;BME280;74284;52.610;10.236;2024-02-26T02:59:10;99888.09;;;2.74;62.96
49072;BME280;74284;52.610;10.236;2024-02-26T03:01:35;99889.03;;;2.71;63.47
49072;BME280;74284;52.610;10.236;2024-02-26T03:04:01;99893.16;;;2.80;62.22
49072;BME280;74284;52.610;10.236;2024-02-26T03:06:26;99889.25;;;2.64;64.65
49072;BME280;74284;52.610;10.236;2024-02-26T03:08:53;99888.16;;;2.72;63.42
49072;BME280;74284;52.610;10.236;2024-02-26T03:11:19;99899.66;;;3.01;64.29
49072;BME280;74284;52.610;10.236;2024-02-26T03:13:45;99897.97;;;2.98;62.22
49072;BME280;74284;52.610;10.236;2024-02-26T03:16:10;99902.34;;;2.98;61.66
49072;BME280;74284;52.610;10.236;2024-02-26T03:18:38;99902.59;;;2.87;62.65
49072;BME280;74284;52.610;10.236;2024-02-26T03:21:03;99902.53;;;2.92;61.78
49072;BME280;74284;52.610;10.236;2024-02-26T03:23:29;99903.25;;;2.97;61.69
49072;BME280;74284;52.610;10.236;2024-02-26T03:25:57;99912.91;;;2.95;61.41
49072;BME280;74284;52.610;10.236;2024-02-26T03:28:23;99910.31;;;2.93;61.47
49072;BME280;74284;52.610;10.236;2024-02-26T03:30:48;99911.25;;;2.92;61.55
49072;BME280;74284;52.610;10.236;2024-02-26T03:33:13;99914.97;;;2.80;62.49
49072;BME280;74284;52.610;10.236;2024-02-26T03:35:38;99915.84;;;2.81;62.31
49072;BME280;74284;52.610;10.236;2024-02-26T03:38:04;99919.19;;;2.88;62.04
49072;BME280;74284;52.610;10.236;2024-02-26T03:40:29;99918.81;;;2.31;63.31
49072;BME280;74284;52.610;10.236;2024-02-26T03:42:54;99926.94;;;2.18;64.15
49072;BME280;74284;52.610;10.236;2024-02-26T03:45:22;99925.34;;;2.14;64.64
49072;BME280;74284;52.610;10.236;2024-02-26T03:47:47;99921.06;;;2.08;65.06
49072;BME280;74284;52.610;10.236;2024-02-26T03:50:13;99922.72;;;2.12;64.86
49072;BME280;74284;52.610;10.236;2024-02-26T03:52:38;99933.19;;;2.12;64.72
49072;BME280;74284;52.610;10.236;2024-02-26T03:55:04;99935.16;;;2.02;65.69
49072;BME280;74284;52.610;10.236;2024-02-26T03:57:29;99935.00;;;2.10;66.07
49072;BME280;74284;52.610;10.236;2024-02-26T03:59:54;99936.66;;;2.13;66.42
49072;BME280;74284;52.610;10.236;2024-02-26T04:02:20;99936.03;;;2.42;66.75
49072;BME280;74284;52.610;10.236;2024-02-26T04:04:46;99928.25;;;3.08;62.47
49072;BME280;74284;52.610;10.236;2024-02-26T04:07:12;99928.78;;;3.23;61.44
49072;BME280;74284;52.610;10.236;2024-02-26T04:09:38;99926.06;;;3.26;61.37
49072;BME280;74284;52.610;10.236;2024-02-26T04:12:04;99932.59;;;2.38;64.36
49072;BME280;74284;52.610;10.236;2024-02-26T04:14:29;99941.84;;;2.16;66.56
49072;BME280;74284;52.610;10.236;2024-02-26T04:16:54;99938.09;;;2.27;67.91
49072;BME280;74284;52.610;10.236;2024-02-26T04:19:20;99928.94;;;2.81;67.74
49072;BME280;74284;52.610;10.236;2024-02-26T04:21:45;99929.03;;;3.12;65.19
49072;BME280;74284;52.610;10.236;2024-02-26T04:24:11;99924.69;;;3.44;63.07
49072;BME280;74284;52.610;10.236;2024-02-26T04:26:37;99925.25;;;3.24;63.73
49072;BME280;74284;52.610;10.236;2024-02-26T04:29:02;99929.78;;;3.50;61.78
49072;BME280;74284;52.610;10.236;2024-02-26T04:31:27;99927.81;;;2.93;62.99
49072;BME280;74284;52.610;10.236;2024-02-26T04:33:53;99934.72;;;2.59;65.56
49072;BME280;74284;52.610;10.236;2024-02-26T04:36:18;99938.31;;;2.55;66.20
49072;BME280;74284;52.610;10.236;2024-02-26T04:38:43;99933.72;;;3.33;63.98
49072;BME280;74284;52.610;10.236;2024-02-26T04:41:09;99935.84;;;3.52;62.53
49072;BME280;74284;52.610;10.236;2024-02-26T04:43:35;99929.75;;;3.51;62.51
49072;BME280;74284;52.610;10.236;2024-02-26T04:46:06;99937.28;;;3.64;62.33
49072;BME280;74284;52.610;10.236;2024-02-26T04:48:32;99950.19;;;3.70;62.24
49072;BME280;74284;52.610;10.236;2024-02-26T04:50:57;99949.50;;;3.63;62.77
49072;BME280;74284;52.610;10.236;2024-02-26T04:53:22;99944.19;;;3.66;63.13
49072;BME280;74284;52.610;10.236;2024-02-26T04:55:48;99952.03;;;3.68;63.59
49072;BME280;74284;52.610;10.236;2024-02-26T04:58:13;99958.59;;;3.82;62.46
49072;BME280;74284;52.610;10.236;2024-02-26T05:00:38;99958.72;;;3.78;62.68
49072;BME280;74284;52.610;10.236;2024-02-26T05:03:04;99955.84;;;3.85;62.48
49072;BME280;74284;52.610;10.236;2024-02-26T05:05:29;99955.84;;;3.85;62.23
49072;BME280;74284;52.610;10.236;2024-02-26T05:07:54;99961.59;;;3.03;65.59
49072;BME280;74284;52.610;10.236;2024-02-26T05:10:20;99958.88;;;3.72;64.06
49072;BME280;74284;52.610;10.236;2024-02-26T05:12:45;99952.34;;;3.86;63.17
49072;BME280;74284;52.610;10.236;2024-02-26T05:15:10;99961.09;;;3.87;62.96
49072;BME280;74284;52.610;10.236;2024-02-26T05:17:36;99961.81;;;3.92;62.54
49072;BME280;74284;52.610;10.236;2024-02-26T05:20:01;99972.13;;;3.98;62.29
49072;BME280;74284;52.610;10.236;2024-02-26T05:22:27;99967.84;;;3.94;62.68
49072;BME280;74284;52.610;10.236;2024-02-26T05:24:52;99968.63;;;3.35;65.39
49072;BME280;74284;52.610;10.236;2024-02-26T05:27:17;99973.38;;;3.85;63.45
49072;BME280;74284;52.610;10.236;2024-02-26T05:29:43;99976.50;;;3.68;64.60
49072;BME280;74284;52.610;10.236;2024-02-26T05:32:08;99973.47;;;3.82;63.90
49072;BME280;74284;52.610;10.236;2024-02-26T05:34:34;99979.91;;;3.05;66.64
49072;BME280;74284;52.610;10.236;2024-02-26T05:36:59;99988.69;;;3.02;67.03
49072;BME280;74284;52.610;10.236;2024-02-26T05:39:24;99994.16;;;2.93;67.77
49072;BME280;74284;52.610;10.236;2024-02-26T05:41:50;99998.69;;;2.87;68.58
49072;BME280;74284;52.610;10.236;2024-02-26T05:44:15;99997.16;;;3.14;67.05
49072;BME280;74284;52.610;10.236;2024-02-26T05:46:41;99992.78;;;3.79;66.67
49072;BME280;74284;52.610;10.236;2024-02-26T05:49:07;99992.31;;;3.95;64.03
49072;BME280;74284;52.610;10.236;2024-02-26T05:51:32;99994.94;;;3.95;64.45
49072;BME280;74284;52.610;10.236;2024-02-26T05:53:58;99990.28;;;4.06;63.39
49072;BME280;74284;52.610;10.236;2024-02-26T05:56:23;99987.91;;;3.97;63.61
49072;BME280;74284;52.610;10.236;2024-02-26T05:58:48;99994.78;;;4.01;63.98
49072;BME280;74284;52.610;10.236;2024-02-26T06:01:16;100004.25;;;3.08;67.22
49072;BME280;74284;52.610;10.236;2024-02-26T06:03:42;100008.03;;;2.98;68.88
49072;BME280;74284;52.610;10.236;2024-02-26T06:06:07;100003.94;;;3.22;67.47
49072;BME280;74284;52.610;10.236;2024-02-26T06:08:32;100007.94;;;3.01;68.38
49072;BME280;74284;52.610;10.236;2024-02-26T06:10:58;100006.31;;;2.97;69.06
49072;BME280;74284;52.610;10.236;2024-02-26T06:13:23;100001.56;;;3.12;69.66
49072;BME280;74284;52.610;10.236;2024-02-26T06:15:49;100004.34;;;3.40;68.03
49072;BME280;74284;52.610;10.236;2024-02-26T06:18:14;100005.59;;;3.59;67.25
49072;BME280;74284;52.610;10.236;2024-02-26T06:20:39;100005.53;;;3.60;67.04
49072;BME280;74284;52.610;10.236;2024-02-26T06:23:04;100002.69;;;3.99;65.80
49072;BME280;74284;52.610;10.236;2024-02-26T06:25:30;100003.22;;;4.12;64.55
49072;BME280;74284;52.610;10.236;2024-02-26T06:27:55;100004.00;;;3.84;64.61
49072;BME280;74284;52.610;10.236;2024-02-26T06:30:20;100013.31;;;3.31;67.79
49072;BME280;74284;52.610;10.236;2024-02-26T06:32:46;100012.56;;;3.26;68.71
49072;BME280;74284;52.610;10.236;2024-02-26T06:35:11;100009.84;;;3.94;66.54
49072;BME280;74284;52.610;10.236;2024-02-26T06:37:37;100012.56;;;4.22;64.73
49072;BME280;74284;52.610;10.236;2024-02-26T06:40:02;100016.19;;;4.17;65.42
49072;BME280;74284;52.610;10.236;2024-02-26T06:42:32;100018.28;;;4.35;64.28
49072;BME280;74284;52.610;10.236;2024-02-26T06:44:57;100026.88;;;4.40;63.91
49072;BME280;74284;52.610;10.236;2024-02-26T06:47:23;100027.22;;;4.57;63.35
49072;BME280;74284;52.610;10.236;2024-02-26T06:49:48;100033.09;;;4.37;64.82
49072;BME280;74284;52.610;10.236;2024-02-26T06:52:14;100036.06;;;3.96;65.52
49072;BME280;74284;52.610;10.236;2024-02-26T06:54:39;100045.72;;;3.94;65.84
49072;BME280;74284;52.610;10.236;2024-02-26T06:57:04;100047.81;;;3.82;66.69
49072;BME280;74284;52.610;10.236;2024-02-26T06:59:29;100048.41;;;3.92;66.19
49072;BME280;74284;52.610;10.236;2024-02-26T07:01:55;100053.13;;;4.40;65.83
49072;BME280;74284;52.610;10.236;2024-02-26T07:04:20;100053.41;;;4.88;62.70
49072;BME280;74284;52.610;10.236;2024-02-26T07:06:45;100052.84;;;5.07;61.81
49072;BME280;74284;52.610;10.236;2024-02-26T07:09:12;100063.97;;;4.29;63.99
49072;BME280;74284;52.610;10.236;2024-02-26T07:11:37;100072.81;;;4.27;64.81
49072;BME280;74284;52.610;10.236;2024-02-26T07:14:03;100072.94;;;4.81;64.23
49072;BME280;74284;52.610;10.236;2024-02-26T07:16:28;100069.13;;;5.18;61.76
49072;BME280;74284;52.610;10.236;2024-02-26T07:18:54;100078.53;;;4.40;64.32
49072;BME280;74284;52.610;10.236;2024-02-26T07:21:19;100079.13;;;4.20;65.34
49072;BME280;74284;52.610;10.236;2024-02-26T07:23:44;100074.09;;;4.12;66.24
49072;BME280;74284;52.610;10.236;2024-02-26T07:26:10;100077.63;;;4.11;66.61
49072;BME280;74284;52.610;10.236;2024-02-26T07:28:37;100074.72;;;3.89;67.74
49072;BME280;74284;52.610;10.236;2024-02-26T07:31:02;100075.66;;;4.49;66.89
49072;BME280;74284;52.610;10.236;2024-02-26T07:33:28;100076.31;;;3.95;67.86
49072;BME280;74284;52.610;10.236;2024-02-26T07:35:53;100075.31;;;3.99;68.28
49072;BME280;74284;52.610;10.236;2024-02-26T07:38:19;100078.88;;;3.98;68.86
49072;BME280;74284;52.610;10.236;2024-02-26T07:40:44;100077.75;;;4.06;68.44
49072;BME280;74284;52.610;10.236;2024-02-26T07:43:09;100082.94;;;4.09;68.06
49072;BME280;74284;52.610;10.236;2024-02-26T07:45:35;100083.47;;;4.21;67.74
49072;BME280;74284;52.610;10.236;2024-02-26T07:48:01;100084.06;;;4.30;67.39
49072;BME280;74284;52.610;10.236;2024-02-26T07:50:27;100079.47;;;4.38;67.19
49072;BME280;74284;52.610;10.236;2024-02-26T07:52:52;100081.00;;;4.46;67.51
49072;BME280;74284;52.610;10.236;2024-02-26T07:55:18;100086.84;;;4.55;66.40
49072;BME280;74284;52.610;10.236;2024-02-26T07:57:44;100082.38;;;5.15;64.42
49072;BME280;74284;52.610;10.236;2024-02-26T08:00:10;100086.09;;;5.36;63.28
49072;BME280;74284;52.610;10.236;2024-02-26T08:02:38;100089.19;;;5.49;62.79
49072;BME280;74284;52.610;10.236;2024-02-26T08:05:04;100088.31;;;5.75;61.46
49072;BME280;74284;52.610;10.236;2024-02-26T08:07:30;100095.81;;;5.85;61.34
49072;BME280;74284;52.610;10.236;2024-02-26T08:09:55;100092.25;;;5.08;63.72
49072;BME280;74284;52.610;10.236;2024-02-26T08:12:20;100100.00;;;5.66;62.37
49072;BME280;74284;52.610;10.236;2024-02-26T08:14:46;100100.72;;;5.45;63.48
49072;BME280;74284;52.610;10.236;2024-02-26T08:17:11;100101.75;;;5.92;61.48
49072;BME280;74284;52.610;10.236;2024-02-26T08:19:36;100110.59;;;6.14;61.21
49072;BME280;74284;52.610;10.236;2024-02-26T08:22:02;100098.03;;;6.23;60.91
49072;BME280;74284;52.610;10.236;2024-02-26T08:24:28;100105.44;;;6.11;60.61
49072;BME280;74284;52.610;10.236;2024-02-26T08:26:53;100106.03;;;6.20;60.44
49072;BME280;74284;52.610;10.236;2024-02-26T08:29:19;100102.13;;;6.06;61.27
49072;BME280;74284;52.610;10.236;2024-02-26T08:31:44;100103.31;;;6.23;60.68
49072;BME280;74284;52.610;10.236;2024-02-26T08:34:09;100096.88;;;6.30;60.75
49072;BME280;74284;52.610;10.236;2024-02-26T08:36:35;100101.00;;;6.13;60.97
49072;BME280;74284;52.610;10.236;2024-02-26T08:39:00;100094.25;;;6.30;61.24
49072;BME280;74284;52.610;10.236;2024-02-26T08:41:25;100096.69;;;6.34;60.97
49072;BME280;74284;52.610;10.236;2024-02-26T08:43:51;100099.41;;;6.33;61.60
49072;BME280;74284;52.610;10.236;2024-02-26T08:46:16;100094.03;;;6.36;60.39
49072;BME280;74284;52.610;10.236;2024-02-26T08:48:42;100098.06;;;6.45;60.54
49072;BME280;74284;52.610;10.236;2024-02-26T08:51:08;100099.34;;;6.58;60.80
49072;BME280;74284;52.610;10.236;2024-02-26T08:53:34;100108.06;;;6.60;60.44
49072;BME280;74284;52.610;10.236;2024-02-26T08:55:59;100110.06;;;6.77;59.49
49072;BME280;74284;52.610;10.236;2024-02-26T08:58:24;100109.53;;;6.67;59.90
49072;BME280;74284;52.610;10.236;2024-02-26T09:00:50;100107.97;;;6.85;59.56
49072;BME280;74284;52.610;10.236;2024-02-26T09:03:15;100107.78;;;6.89;59.59
49072;BME280;74284;52.610;10.236;2024-02-26T09:05:41;100108.56;;;6.70;60.76
49072;BME280;74284;52.610;10.236;2024-02-26T09:08:06;100114.06;;;6.87;60.02
49072;BME280;74284;52.610;10.236;2024-02-26T09:10:32;100118.94;;;6.74;60.39
49072;BME280;74284;52.610;10.236;2024-02-26T09:12:58;100110.34;;;6.46;61.34
49072;BME280;74284;52.610;10.236;2024-02-26T09:15:23;100123.19;;;6.31;61.49
49072;BME280;74284;52.610;10.236;2024-02-26T09:17:48;100115.03;;;6.37;61.40
49072;BME280;74284;52.610;10.236;2024-02-26T09:20:15;100116.69;;;6.40;61.21
49072;BME280;74284;52.610;10.236;2024-02-26T09:22:41;100121.84;;;6.43;60.84
49072;BME280;74284;52.610;10.236;2024-02-26T09:25:07;100134.94;;;6.70;59.71
49072;BME280;74284;52.610;10.236;2024-02-26T09:27:33;100121.81;;;6.68;60.48
49072;BME280;74284;52.610;10.236;2024-02-26T09:29:58;100134.06;;;6.93;59.04
49072;BME280;74284;52.610;10.236;2024-02-26T09:32:23;100133.56;;;6.59;60.32
49072;BME280;74284;52.610;10.236;2024-02-26T09:34:49;100133.22;;;6.45;60.59
49072;BME280;74284;52.610;10.236;2024-02-26T09:37:15;100132.75;;;6.57;60.34
49072;BME280;74284;52.610;10.236;2024-02-26T09:39:40;100133.56;;;6.83;60.07
49072;BME280;74284;52.610;10.236;2024-02-26T09:42:06;100134.69;;;6.99;59.48
49072;BME280;74284;52.610;10.236;2024-02-26T09:44:36;100141.56;;;7.27;58.33
49072;BME280;74284;52.610;10.236;2024-02-26T09:47:05;100153.41;;;7.15;57.89
49072;BME280;74284;52.610;10.236;2024-02-26T09:49:33;100155.19;;;7.14;57.74
49072;BME280;74284;52.610;10.236;2024-02-26T09:52:00;100151.84;;;7.55;57.46
49072;BME280;74284;52.610;10.236;2024-02-26T09:54:28;100152.34;;;7.43;57.68
49072;BME280;74284;52.610;10.236;2024-02-26T09:56:59;100154.13;;;7.42;57.39
49072;BME280;74284;52.610;10.236;2024-02-26T09:59:24;100152.13;;;7.69;56.91
49072;BME280;74284;52.610;10.236;2024-02-26T10:01:50;100150.72;;;7.82;56.50
49072;BME280;74284;52.610;10.236;2024-02-26T10:04:16;100153.31;;;8.04;55.97
49072;BME280;74284;52.610;10.236;2024-02-26T10:06:41;100154.47;;;7.97;55.47
49072;BME280;74284;52.610;10.236;2024-02-26T10:09:10;100156.19;;;7.98;55.88
49072;BME280;74284;52.610;10.236;2024-02-26T10:11:36;100160.41;;;8.02;56.20
49072;BME280;74284;52.610;10.236;2024-02-26T10:14:02;100164.66;;;8.27;55.56
49072;BME280;74284;52.610;10.236;2024-02-26T10:16:28;100159.88;;;7.74;56.05
49072;BME280;74284;52.610;10.236;2024-02-26T10:18:53;100160.81;;;7.93;55.40
49072;BME280;74284;52.610;10.236;2024-02-26T10:21:20;100172.41;;;7.89;55.73
49072;BME280;74284;52.610;10.236;2024-02-26T10:23:46;100168.69;;;7.95;55.50
49072;BME280;74284;52.610;10.236;2024-02-26T10:26:13;100166.03;;;8.15;55.52
49072;BME280;74284;52.610;10.236;2024-02-26T10:28:39;100170.59;;;8.11;54.57
49072;BME280;74284;52.610;10.236;2024-02-26T10:31:06;100168.16;;;8.27;54.90
49072;BME280;74284;52.610;10.236;2024-02-26T10:33:33;100170.97;;;8.43;53.69
49072;BME280;74284;52.610;10.236;2024-02-26T10:36:01;100166.38;;;8.28;54.62
49072;BME280;74284;52.610;10.236;2024-02-26T10:38:26;100165.75;;;8.21;55.14
49072;BME280;74284;52.610;10.236;2024-02-26T10:40:51;100168.59;;;8.16;55.15
49072;BME280;74284;52.610;10.236;2024-02-26T10:43:17;100176.63;;;7.95;54.88
49072;BME280;74284;52.610;10.236;2024-02-26T10:45:43;100173.50;;;8.26;54.27
49072;BME280;74284;52.610;10.236;2024-02-26T10:48:10;100167.41;;;8.44;54.18
49072;BME280;74284;52.610;10.236;2024-02-26T10:50:36;100173.84;;;8.18;54.28
49072;BME280;74284;52.610;10.236;2024-02-26T10:53:02;100168.94;;;8.50;54.01
49072;BME280;74284;52.610;10.236;2024-02-26T10:55:31;100169.72;;;8.52;53.74
49072;BME280;74284;52.610;10.236;2024-02-26T10:57:58;100163.03;;;8.43;54.20
49072;BME280;74284;52.610;10.236;2024-02-26T11:00:24;100166.56;;;8.23;54.13
49072;BME280;74284;52.610;10.236;2024-02-26T11:02:51;100176.22;;;8.04;54.52
49072;BME280;74284;52.610;10.236;2024-02-26T11:05:16;100165.94;;;7.76;54.95
49072;BME280;74284;52.610;10.236;2024-02-26T11:07:42;100165.00;;;8.19;54.35
49072;BME280;74284;52.610;10.236;2024-02-26T11:10:11;100166.28;;;8.50;53.16
49072;BME280;74284;52.610;10.236;2024-02-26T11:12:39;100163.88;;;8.64;54.08
49072;BME280;74284;52.610;10.236;2024-02-26T11:15:04;100166.56;;;8.83;52.19
49072;BME280;74284;52.610;10.236;2024-02-26T11:17:31;100167.03;;;8.72;53.32
49072;BME280;74284;52.610;10.236;2024-02-26T11:19:59;100161.72;;;8.92;52.78
49072;BME280;74284;52.610;10.236;2024-02-26T11:22:25;100168.81;;;8.72;53.24
49072;BME280;74284;52.610;10.236;2024-02-26T11:24:54;100160.94;;;8.90;52.87
49072;BME280;74284;52.610;10.236;2024-02-26T11:27:24;100162.31;;;8.79;52.81
49072;BME280;74284;52.610;10.236;2024-02-26T11:29:52;100171.00;;;8.62;52.66
49072;BME280;74284;52.610;10.236;2024-02-26T11:32:18;100160.28;;;8.85;52.64
49072;BME280;74284;52.610;10.236;2024-02-26T11:34:44;100170.38;;;8.96;51.42
49072;BME280;74284;52.610;10.236;2024-02-26T11:37:11;100166.38;;;9.06;52.33
49072;BME280;74284;52.610;10.236;2024-02-26T11:39:37;100173.84;;;9.34;51.47
49072;BME280;74284;52.610;10.236;2024-02-26T11:42:07;100174.50;;;9.02;51.91
49072;BME280;74284;52.610;10.236;2024-02-26T11:44:33;100172.97;;;9.53;51.07
49072;BME280;74284;52.610;10.236;2024-02-26T11:46:59;100184.16;;;9.40;51.97
49072;BME280;74284;52.610;10.236;2024-02-26T11:49:34;100174.94;;;9.49;52.26
49072;BME280;74284;52.610;10.236;2024-02-26T11:52:00;100179.69;;;9.05;52.99
49072;BME280;74284;52.610;10.236;2024-02-26T11:54:52;100176.44;;;9.36;52.74
49072;BME280;74284;52.610;10.236;2024-02-26T11:57:37;100181.50;;;9.22;52.22
49072;BME280;74284;52.610;10.236;2024-02-26T12:05:21;100187.19;;;9.14;52.55
49072;BME280;74284;52.610;10.236;2024-02-26T12:07:59;100186.31;;;9.68;52.37
49072;BME280;74284;52.610;10.236;2024-02-26T12:10:30;100184.09;;;10.30;51.37
49072;BME280;74284;52.610;10.236;2024-02-26T12:13:04;100188.81;;;9.72;52.09
49072;BME280;74284;52.610;10.236;2024-02-26T12:15:37;100185.16;;;9.38;51.14
49072;BME280;74284;52.610;10.236;2024-02-26T12:18:04;100194.28;;;9.68;52.33
49072;BME280;74284;52.610;10.236;2024-02-26T12:20:31;100190.22;;;9.42;51.10
49072;BME280;74284;52.610;10.236;2024-02-26T12:22:56;100190.91;;;9.65;52.20
49072;BME280;74284;52.610;10.236;2024-02-26T12:25:24;100192.81;;;9.98;51.91
49072;BME280;74284;52.610;10.236;2024-02-26T12:27:51;100199.91;;;9.97;51.11
49072;BME280;74284;52.610;10.236;2024-02-26T12:30:17;100196.59;;;10.28;50.16
49072;BME280;74284;52.610;10.236;2024-02-26T12:32:43;100195.03;;;10.24;50.38
49072;BME280;74284;52.610;10.236;2024-02-26T12:35:08;100202.16;;;9.87;50.67
49072;BME280;74284;52.610;10.236;2024-02-26T12:37:34;100196.72;;;10.08;49.83
49072;BME280;74284;52.610;10.236;2024-02-26T12:40:03;100202.97;;;10.07;51.16
49072;BME280;74284;52.610;10.236;2024-02-26T12:42:31;100207.28;;;10.27;50.37
49072;BME280;74284;52.610;10.236;2024-02-26T12:44:58;100204.91;;;10.03;50.59
49072;BME280;74284;52.610;10.236;2024-02-26T12:47:23;100205.81;;;9.67;50.46
49072;BME280;74284;52.610;10.236;2024-02-26T12:49:49;100200.59;;;10.70;49.11
49072;BME280;74284;52.610;10.236;2024-02-26T12:52:14;100208.81;;;10.13;49.21
49072;BME280;74284;52.610;10.236;2024-02-26T12:54:41;100201.44;;;10.70;49.27